Airfield :
LOGIN :

Register | Disclaimer

   EN    FR    IT 

 










Legend :    VFR   Marginal VFR   IFR   Intensive IFR   Very Intensive IFR
Visi :
Ceiling :
>= 8 km
>= 3000ft
5 to 8 km
1000 to 3000 ft
1500m to 5 km
500 to 1000 ft
800 to 1500m
200 to 500 ft
< 800m
< 200 ft
Symbols :   Thunderstorms  Fog  Heavy snow  Heavy precipitations  Wind > 20 kt
SIGMETs :     Misc.  Thunderstorms  Icing  Turbulence  Mountain Waves  Volcanic Ashes






- Airport Elevation : 299 ft
- IATA code : EDM


LFRI - La Roche Sur Yon - Les Ajoncs

CURRENT METAR :
  • 060500Z AUTO 00000KT 1600 BR VV/// 00/00 Q1022

EXPIRED METARs :
  • 060430Z AUTO 00000KT 1300 1200 R28/1700D BR VV/// M00/M00 Q1022
  • 060400Z AUTO 00000KT 0900 0800 R28/1100U FZFG VV/// M00/M00 Q1022
  • 060330Z AUTO 00000KT 0900 0800 R28/1200D FZFG VV/// M01/M01 Q1022
  • 060300Z AUTO 00000KT 0700 R28/0900D FZFG VV/// M01/M01 Q1022
  • 060230Z AUTO 00000KT 0650 0600 R28/0800U FZFG VV/// M01/M01 Q1022

TAF TAF LFRI
Valid from the 05 at 18:00 until the 06 at 18:00 UTC


051700Z 0518/0618 VRB03KT 0400 FG VV///
PROB30
TEMPO 0518/0520 1300 BR OVC002
BECMG 0609/0611 18010KT 7000 -RA BKN016
TEMPO 0611/0618 BKN011



MET'MAP, your aeronautical weather chart ! - Copyright ORBIFLY December 2007 - Disclaimer

ORBIFLY MET'MAP TEAM :

Programming & Development : Alexandra Zaïnal
Concept & original design : Baudouin d'Aumeries
Assistance for programming : Marc-Olivier Méhu
Technical & hardware support : Manuel Goepfert

Contact : metmap@orbifly.com




SOURCES & CREDITS :

   NOAA